Time;durP1;ratioP1;P1;durP2;ratioP2;P2;SDS_P1;SDS_P2;PMS_P1;PMS_P2;Temp;Humidity;BMP_temperature;BMP_pressure;BME280_temperature;BME280_humidity;BME280_pressure;Samples;Min_cycle;Max_cycle;Signal;HPM_P1;HPM_P2
2021/11/18 00:01:53;;;;;;;25.40;17.00;;;;;;;4.16;85.41;97204.75;105399;1310;25210;-84
2021/11/18 00:04:24;;;;;;;28.20;17.40;;;;;;;4.16;85.42;97205.48;105387;1310;26193;-84
2021/11/18 00:06:55;;;;;;;24.30;13.90;;;;;;;4.15;85.34;97205.92;105343;1309;26936;-84
2021/11/18 00:09:26;;;;;;;23.20;14.80;;;;;;;4.15;85.37;97200.89;105441;1311;26231;-83
2021/11/18 00:11:57;;;;;;;24.60;14.20;;;;;;;4.15;85.20;97204.72;105259;1310;25069;-83
2021/11/18 00:14:27;;;;;;;23.60;14.30;;;;;;;4.16;85.30;97204.30;105368;1311;24735;-83
2021/11/18 00:16:56;;;;;;;;;;;;;;;4.16;85.10;97207.53;105341;1314;26683;-83
2021/11/18 00:19:27;;;;;;;19.30;11.70;;;;;;;4.17;84.96;97206.88;105349;1313;26530;-84
2021/11/18 00:21:56;;;;;;;;;;;;;;;4.18;84.86;97213.08;105371;1310;28759;-84
2021/11/18 00:24:26;;;;;;;21.60;14.30;;;;;;;4.18;84.93;97212.17;105383;1310;26037;-83
2021/11/18 00:26:57;;;;;;;17.90;10.20;;;;;;;4.17;84.61;97214.38;105351;1314;26878;-83
2021/11/18 00:29:28;;;;;;;19.40;12.00;;;;;;;4.18;84.53;97215.48;105422;1310;27766;-83
2021/11/18 00:31:57;;;;;;;;;;;;;;;4.19;84.44;97223.11;105384;1310;25762;-84
2021/11/18 00:34:28;;;;;;;21.30;13.30;;;;;;;4.20;84.34;97224.20;105331;1309;26500;-83
2021/11/18 00:36:57;;;;;;;;;;;;;;;4.19;84.24;97229.89;105420;1310;27587;-83
2021/11/18 00:39:27;;;;;;;17.50;8.90;;;;;;;4.18;84.26;97238.70;105360;1310;27255;-83
2021/11/18 00:41:58;;;;;;;18.50;11.80;;;;;;;4.17;84.33;97240.50;105373;1313;24958;-83
2021/11/18 00:44:29;;;;;;;15.80;11.00;;;;;;;4.17;84.12;97241.92;105382;1309;25597;-83
2021/11/18 00:47:00;;;;;;;19.30;10.50;;;;;;;4.18;84.11;97247.55;105358;1313;26546;-84
2021/11/18 00:49:31;;;;;;;20.90;11.90;;;;;;;4.18;83.97;97246.87;105381;1309;26910;-83
2021/11/18 00:52:00;;;;;;;;;;;;;;;4.19;84.08;97247.10;105364;1311;24898;-84
2021/11/18 00:54:31;;;;;;;16.10;9.70;;;;;;;4.17;83.91;97247.59;105328;1315;29240;-83
2021/11/18 00:57:02;;;;;;;11.00;7.00;;;;;;;4.17;83.55;97246.64;105344;1313;26215;-83
2021/11/18 00:59:33;;;;;;;11.70;6.80;;;;;;;4.17;83.71;97248.05;105351;1309;24861;-83
2021/11/18 01:02:04;;;;;;;11.40;7.00;;;;;;;4.15;83.51;97245.61;105393;1310;26392;-85
2021/11/18 01:04:34;;;;;;;14.10;8.40;;;;;;;4.14;83.50;97246.63;105360;1313;26270;-84
2021/11/18 01:07:06;;;;;;;13.40;8.10;;;;;;;4.13;83.49;97243.66;105342;1309;25228;-84
2021/11/18 01:09:36;;;;;;;12.30;7.20;;;;;;;4.12;83.35;97246.10;105349;1315;27785;-84
2021/11/18 01:12:11;;;;;;;14.40;9.30;;;;;;;4.12;83.30;97249.25;105386;1310;26682;-83
2021/11/18 01:14:42;;;;;;;14.10;9.00;;;;;;;4.12;83.41;97254.87;105262;1309;26725;-84
2021/11/18 01:17:12;;;;;;;14.30;8.70;;;;;;;4.12;83.39;97259.21;105309;1309;41341;-84
2021/11/18 01:19:43;;;;;;;13.20;7.80;;;;;;;4.11;83.24;97253.79;105386;1314;28093;-84
2021/11/18 01:22:15;;;;;;;14.20;7.80;;;;;;;4.11;83.32;97252.73;105385;1310;26825;-84
2021/11/18 01:25:09;;;;;;;11.50;6.30;;;;;;;4.10;83.08;97254.04;105392;1313;36566;-84
2021/11/18 01:27:41;;;;;;;9.50;5.50;;;;;;;4.11;83.15;97254.40;105312;1314;25095;-83
2021/11/18 01:30:16;;;;;;;10.60;6.90;;;;;;;4.10;83.07;97260.23;105405;1309;26533;-83
2021/11/18 01:32:47;;;;;;;14.00;8.00;;;;;;;4.10;83.24;97267.30;105441;1310;28460;-84
2021/11/18 01:35:18;;;;;;;11.90;5.60;;;;;;;4.08;83.22;97266.61;105319;1313;27102;-83
2021/11/18 01:37:49;;;;;;;10.40;5.80;;;;;;;4.07;83.38;97268.45;105403;1309;26400;-83
2021/11/18 01:40:22;;;;;;;11.00;6.90;;;;;;;4.03;83.53;97263.73;105304;1316;29294;-83
2021/11/18 01:42:53;;;;;;;13.70;7.70;;;;;;;4.01;83.88;97262.30;105294;1315;27480;-84
2021/11/18 01:45:29;;;;;;;12.20;7.20;;;;;;;3.98;84.01;97263.34;105327;1309;28404;-83
2021/11/18 01:48:00;;;;;;;10.90;6.30;;;;;;;3.97;84.02;97267.61;105346;1309;28202;-84
2021/11/18 01:50:34;;;;;;;12.60;7.60;;;;;;;3.96;84.36;97269.73;105323;1307;25859;-84
2021/11/18 01:53:09;;;;;;;10.00;5.60;;;;;;;3.94;84.36;97272.56;105336;1311;26685;-84
2021/11/18 01:55:41;;;;;;;15.40;7.80;;;;;;;3.92;84.52;97272.08;105324;1309;25593;-84
2021/11/18 01:58:13;;;;;;;13.30;8.20;;;;;;;3.92;84.59;97271.84;105375;1310;24626;-84
2021/11/18 02:00:48;;;;;;;12.00;8.30;;;;;;;3.90;84.76;97273.85;105386;1311;25605;-83
2021/11/18 02:04:06;;;;;;;11.00;6.60;;;;;;;3.89;84.90;97276.28;105396;1309;27271;-83
2021/11/18 02:06:39;;;;;;;11.70;6.40;;;;;;;3.84;85.29;97271.13;105235;1314;27078;-84
2021/11/18 02:09:15;;;;;;;12.50;7.80;;;;;;;3.82;85.33;97271.70;105336;1310;32905;-84
2021/11/18 02:11:48;;;;;;;14.10;8.30;;;;;;;3.80;85.58;97273.31;105433;1309;27070;-84
2021/11/18 02:14:22;;;;;;;13.40;8.00;;;;;;;3.79;85.69;97273.31;105353;1310;25924;-84
2021/11/18 02:16:55;;;;;;;12.00;7.70;;;;;;;3.78;85.69;97268.89;105329;1309;25657;-83
2021/11/18 02:19:26;;;;;;;12.40;7.20;;;;;;;3.79;85.90;97262.59;105351;1310;28118;-83
2021/11/18 02:21:56;;;;;;;11.80;6.30;;;;;;;3.77;86.20;97266.11;105336;1309;29686;-83
2021/11/18 02:24:30;;;;;;;15.50;6.90;;;;;;;3.73;86.33;97267.22;105341;1310;27563;-83
2021/11/18 02:27:01;;;;;;;15.40;8.00;;;;;;;3.70;86.57;97266.25;105278;1313;25241;-84
2021/11/18 02:29:32;;;;;;;12.30;5.70;;;;;;;3.69;86.70;97269.80;105396;1311;27631;-84
2021/11/18 02:32:02;;;;;;;;;;;;;;;3.69;87.00;97265.54;105360;1313;24529;-84
2021/11/18 02:34:34;;;;;;;;;;;;;;;3.66;87.17;97274.15;105371;1309;25815;-84
2021/11/18 02:37:05;;;;;;;14.40;8.50;;;;;;;3.65;87.44;97284.96;105370;1309;24933;-84
2021/11/18 02:39:37;;;;;;;13.60;8.60;;;;;;;3.63;87.52;97290.31;105328;1314;24383;-84
2021/11/18 02:42:10;;;;;;;12.80;8.30;;;;;;;3.62;87.60;97293.79;105337;1309;25591;-83
2021/11/18 02:44:42;;;;;;;13.00;8.10;;;;;;;3.61;87.68;97285.81;105346;1311;27718;-84
2021/11/18 02:47:14;;;;;;;14.30;8.70;;;;;;;3.63;87.84;97276.15;105347;1315;25111;-84
2021/11/18 02:49:47;;;;;;;13.10;7.30;;;;;;;3.63;87.95;97276.95;105382;1310;28249;-84
2021/11/18 02:52:25;;;;;;;15.20;8.10;;;;;;;3.64;87.96;97276.34;105438;1313;26487;-84
2021/11/18 02:54:56;;;;;;;14.00;8.00;;;;;;;3.64;88.00;97273.77;105394;1309;26248;-83
2021/11/18 02:57:28;;;;;;;11.30;7.50;;;;;;;3.63;88.00;97271.55;105280;1314;25848;-84
2021/11/18 02:59:58;;;;;;;12.50;7.70;;;;;;;3.63;88.18;97273.01;105342;1309;27610;-83
2021/11/18 03:02:27;;;;;;;;;;;;;;;3.63;88.13;97282.65;105348;1309;26349;-84
2021/11/18 03:04:58;;;;;;;12.10;7.10;;;;;;;3.61;88.21;97272.70;105306;1316;24992;-83
2021/11/18 03:07:29;;;;;;;14.80;8.30;;;;;;;3.60;88.53;97274.98;105377;1309;27770;-84
2021/11/18 03:09:58;;;;;;;;;;;;;;;3.59;88.55;97279.27;105375;1309;24599;-83
2021/11/18 03:12:28;;;;;;;13.30;7.60;;;;;;;3.59;88.60;97270.35;105397;1313;25249;-84
2021/11/18 03:14:59;;;;;;;12.90;8.40;;;;;;;3.60;88.60;97278.69;105351;1310;25142;-84
2021/11/18 03:17:30;;;;;;;13.50;7.80;;;;;;;3.60;88.61;97285.51;105328;1310;27896;-83
2021/11/18 03:19:59;;;;;;;;;;;;;;;3.61;88.69;97285.94;105341;1309;27403;-84
2021/11/18 03:22:30;;;;;;;14.60;8.20;;;;;;;3.61;88.83;97290.30;105390;1315;26892;-84
2021/11/18 03:25:01;;;;;;;13.20;8.60;;;;;;;3.61;88.87;97291.26;105311;1309;25499;-84
2021/11/18 03:27:31;;;;;;;14.90;7.20;;;;;;;3.61;88.79;97294.92;105348;1309;26710;-83
2021/11/18 03:30:04;;;;;;;14.30;7.80;;;;;;;3.62;88.85;97294.67;105375;1314;25832;-83
2021/11/18 03:32:35;;;;;;;13.40;7.30;;;;;;;3.63;88.82;97297.61;105394;1311;27282;-83
2021/11/18 03:35:07;;;;;;;15.10;9.30;;;;;;;3.64;88.80;97299.52;105274;1310;26119;-84
2021/11/18 03:37:37;;;;;;;14.60;7.50;;;;;;;3.65;88.80;97305.54;105362;1310;25392;-84
2021/11/18 03:40:10;;;;;;;13.90;8.10;;;;;;;3.67;88.79;97304.65;105354;1309;26605;-84
2021/11/18 03:42:41;;;;;;;12.50;8.10;;;;;;;3.67;88.89;97298.67;105373;1314;26768;-84
2021/11/18 03:45:14;;;;;;;15.30;7.20;;;;;;;3.66;88.82;97295.73;105376;1316;25239;-84
2021/11/18 03:47:45;;;;;;;13.00;8.30;;;;;;;3.66;88.86;97295.28;105429;1309;24875;-84
2021/11/18 03:50:16;;;;;;;14.80;8.20;;;;;;;3.66;88.78;97293.06;105427;1311;29563;-84
2021/11/18 03:52:47;;;;;;;11.20;5.90;;;;;;;3.65;88.93;97298.14;105373;1309;24393;-84
2021/11/18 03:55:20;;;;;;;15.00;8.90;;;;;;;3.65;89.01;97296.81;105434;1307;25357;-83
2021/11/18 03:57:53;;;;;;;13.20;8.50;;;;;;;3.63;89.27;97291.84;105332;1309;25353;-83
2021/11/18 04:00:27;;;;;;;12.90;7.00;;;;;;;3.63;89.17;97292.98;105366;1310;25467;-83
2021/11/18 04:02:59;;;;;;;16.70;9.30;;;;;;;3.63;89.24;97292.84;105365;1309;30048;-84
2021/11/18 04:05:32;;;;;;;13.40;7.90;;;;;;;3.63;89.24;97298.97;105361;1308;27251;-84
2021/11/18 04:08:03;;;;;;;14.30;8.50;;;;;;;3.65;89.24;97310.34;105382;1313;27530;-84
2021/11/18 04:10:36;;;;;;;13.80;8.20;;;;;;;3.64;89.30;97308.65;105363;1310;24006;-84
2021/11/18 04:13:08;;;;;;;16.70;9.70;;;;;;;3.63;89.44;97309.52;105376;1309;28463;-84
2021/11/18 04:15:41;;;;;;;12.80;8.00;;;;;;;3.64;89.32;97306.91;105383;1309;26515;-84
2021/11/18 04:18:12;;;;;;;15.10;8.90;;;;;;;3.65;89.40;97309.73;105196;1310;289089;-82
2021/11/18 04:20:42;;;;;;;15.80;8.80;;;;;;;3.65;89.45;97309.15;105369;1311;26523;-84
2021/11/18 04:23:11;;;;;;;;;;;;;;;3.66;89.36;97308.23;105376;1311;26414;-84
2021/11/18 04:25:42;;;;;;;13.30;7.10;;;;;;;3.67;89.35;97303.55;105367;1310;25641;-84
2021/11/18 04:28:14;;;;;;;14.60;9.20;;;;;;;3.68;89.28;97306.26;105355;1310;34588;-84
2021/11/18 04:30:47;;;;;;;13.70;7.60;;;;;;;3.67;89.39;97307.30;105392;1315;29575;-84
2021/11/18 04:33:18;;;;;;;14.80;8.50;;;;;;;3.68;89.43;97302.65;105416;1310;27003;-84
2021/11/18 04:35:49;;;;;;;13.00;7.90;;;;;;;3.69;89.39;97303.30;105361;1309;25939;-82
2021/11/18 04:38:20;;;;;;;8.40;5.20;;;;;;;3.69;89.34;97300.14;105368;1315;26946;-83
2021/11/18 04:40:51;;;;;;;10.40;6.80;;;;;;;3.68;89.34;97300.28;105395;1314;25565;-83
2021/11/18 04:43:23;;;;;;;10.30;7.40;;;;;;;3.69;89.38;97292.56;105342;1309;26245;-83
2021/11/18 04:45:54;;;;;;;12.80;7.90;;;;;;;3.69;89.37;97303.62;105384;1311;25214;-84
2021/11/18 04:48:25;;;;;;;12.50;7.40;;;;;;;3.66;89.33;97308.69;105379;1309;25897;-83
2021/11/18 04:50:57;;;;;;;13.20;7.60;;;;;;;3.66;89.41;97308.71;105386;1309;25747;-84
2021/11/18 04:53:28;;;;;;;16.90;8.60;;;;;;;3.66;89.42;97314.48;105296;1309;25974;-83
2021/11/18 04:56:01;;;;;;;14.60;7.90;;;;;;;3.66;89.46;97323.92;105345;1309;27179;-84
2021/11/18 04:58:32;;;;;;;14.10;8.20;;;;;;;3.67;89.40;97325.06;105321;1310;25828;-83
2021/11/18 05:01:03;;;;;;;11.90;7.80;;;;;;;3.69;89.51;97319.92;105329;1313;24714;-83
2021/11/18 05:03:34;;;;;;;11.70;7.20;;;;;;;3.70;89.39;97322.68;105348;1310;26473;-84
2021/11/18 05:06:05;;;;;;;11.50;7.30;;;;;;;3.71;89.49;97328.40;105359;1313;24572;-83
2021/11/18 05:08:36;;;;;;;11.00;6.90;;;;;;;3.74;89.39;97327.64;105357;1309;25454;-83
2021/11/18 05:11:07;;;;;;;10.90;6.30;;;;;;;3.78;89.36;97331.66;105307;1315;25792;-84
2021/11/18 05:13:39;;;;;;;12.10;7.40;;;;;;;3.81;89.24;97329.36;105379;1309;25236;-84
2021/11/18 05:16:14;;;;;;;11.60;6.70;;;;;;;3.83;89.34;97332.27;105358;1311;26051;-84
2021/11/18 05:18:45;;;;;;;10.50;6.70;;;;;;;3.84;89.13;97328.02;105381;1309;25851;-84
2021/11/18 05:21:20;;;;;;;11.70;6.60;;;;;;;3.86;89.07;97325.54;105428;1315;29708;-84
2021/11/18 05:23:52;;;;;;;12.60;6.40;;;;;;;3.89;89.09;97330.59;105362;1310;25724;-84
2021/11/18 05:26:24;;;;;;;9.20;5.20;;;;;;;3.91;89.08;97339.49;105370;1311;27586;-83
2021/11/18 05:28:55;;;;;;;9.30;5.80;;;;;;;3.91;89.09;97340.17;105340;1309;38037;-84
2021/11/18 05:31:30;;;;;;;11.20;6.90;;;;;;;3.90;89.06;97340.75;105351;1310;26484;-83
2021/11/18 05:34:01;;;;;;;8.50;4.90;;;;;;;3.91;89.33;97341.06;105318;1309;27288;-84
2021/11/18 05:36:32;;;;;;;9.20;5.70;;;;;;;3.90;89.26;97336.11;105322;1311;31480;-84
2021/11/18 05:39:04;;;;;;;10.60;6.00;;;;;;;3.87;89.37;97342.77;105342;1309;27594;-84
2021/11/18 05:41:35;;;;;;;10.90;6.00;;;;;;;3.87;89.45;97345.75;105397;1311;26624;-83
2021/11/18 05:44:06;;;;;;;7.90;4.80;;;;;;;3.85;89.57;97348.99;105385;1310;24760;-84
2021/11/18 05:46:38;;;;;;;9.40;6.00;;;;;;;3.83;89.86;97346.73;105391;1315;24525;-83
2021/11/18 05:49:09;;;;;;;8.50;4.50;;;;;;;3.80;90.08;97351.06;105384;1313;27522;-84
2021/11/18 05:51:47;;;;;;;12.10;6.20;;;;;;;3.79;90.09;97356.14;105408;1309;26005;-84
2021/11/18 05:54:18;;;;;;;9.70;6.10;;;;;;;3.78;90.44;97358.10;105389;1311;27899;-84
2021/11/18 05:56:49;;;;;;;10.20;5.90;;;;;;;3.75;90.65;97360.27;105312;1312;28542;-83
2021/11/18 05:59:20;;;;;;;7.80;4.50;;;;;;;3.72;90.97;97363.44;105389;1314;28625;-83
2021/11/18 06:01:51;;;;;;;12.40;7.00;;;;;;;3.70;91.15;97376.34;105365;1311;24410;-84
2021/11/18 06:04:22;;;;;;;10.50;6.60;;;;;;;3.68;91.49;97376.33;105358;1309;27999;-83
2021/11/18 06:06:53;;;;;;;12.50;6.00;;;;;;;3.66;91.70;97386.14;105332;1309;25866;-83
2021/11/18 06:09:23;;;;;;;9.80;6.00;;;;;;;3.64;92.03;97389.96;105341;1311;28989;-83
2021/11/18 06:11:54;;;;;;;10.30;6.50;;;;;;;3.63;92.27;97395.75;105398;1311;27084;-84
2021/11/18 06:14:23;;;;;;;;;;;;;;;3.61;92.28;97392.94;105376;1309;28292;-83
2021/11/18 06:16:55;;;;;;;8.60;5.60;;;;;;;3.62;92.56;97396.16;105348;1311;28208;-83
2021/11/18 06:19:26;;;;;;;11.60;6.60;;;;;;;3.60;92.69;97402.23;105334;1313;26570;-85
2021/11/18 06:21:57;;;;;;;11.00;5.60;;;;;;;3.59;92.84;97403.93;105370;1310;28300;-84
2021/11/18 06:24:28;;;;;;;7.40;5.10;;;;;;;3.59;92.90;97405.14;105386;1313;26948;-84
2021/11/18 06:27:00;;;;;;;7.00;4.90;;;;;;;3.60;92.95;97412.83;105373;1307;27846;-83
2021/11/18 06:29:31;;;;;;;8.50;5.60;;;;;;;3.60;93.10;97410.89;105400;1310;34026;-83
2021/11/18 06:32:04;;;;;;;7.50;4.00;;;;;;;3.60;93.39;97409.69;105349;1315;27258;-84
2021/11/18 06:34:38;;;;;;;8.40;4.80;;;;;;;3.61;93.46;97410.02;105361;1311;27663;-84
2021/11/18 06:37:09;;;;;;;6.90;4.70;;;;;;;3.60;93.57;97421.11;105325;1309;27287;-84
2021/11/18 06:39:41;;;;;;;6.80;4.00;;;;;;;3.58;93.73;97423.27;105364;1314;27943;-84
2021/11/18 06:42:13;;;;;;;7.20;3.80;;;;;;;3.59;93.97;97428.73;105373;1310;27222;-83
2021/11/18 06:44:44;;;;;;;5.60;3.50;;;;;;;3.60;94.18;97429.81;105379;1310;25916;-84
2021/11/18 06:47:16;;;;;;;4.50;3.00;;;;;;;3.61;94.18;97436.23;105450;1313;25179;-84
2021/11/18 06:49:50;;;;;;;5.90;3.80;;;;;;;3.62;94.35;97441.86;105393;1315;35087;-84
2021/11/18 06:52:21;;;;;;;7.40;4.50;;;;;;;3.62;94.51;97441.83;105394;1310;26794;-84
2021/11/18 06:54:52;;;;;;;6.20;2.70;;;;;;;3.62;94.58;97441.89;105308;1316;41019;-84
2021/11/18 06:57:23;;;;;;;5.40;3.80;;;;;;;3.67;94.63;97440.10;105411;1311;26008;-83
2021/11/18 06:59:54;;;;;;;9.20;4.20;;;;;;;3.70;94.57;97444.11;105358;1309;29139;-83
2021/11/18 07:02:25;;;;;;;5.80;3.50;;;;;;;3.74;94.51;97448.46;105379;1316;25887;-84
2021/11/18 07:04:56;;;;;;;10.80;4.90;;;;;;;3.74;94.53;97446.77;105347;1309;26691;-83
2021/11/18 07:07:27;;;;;;;9.10;5.00;;;;;;;3.74;94.50;97448.42;105338;1313;28132;-84
2021/11/18 07:10:01;;;;;;;8.00;4.80;;;;;;;3.78;94.46;97451.52;105370;1312;28277;-84
2021/11/18 07:12:33;;;;;;;6.40;4.30;;;;;;;3.80;94.38;97450.27;105308;1316;27580;-84
2021/11/18 07:15:05;;;;;;;7.10;4.20;;;;;;;3.81;94.31;97450.96;105293;1310;28718;-84
2021/11/18 07:17:36;;;;;;;9.80;4.90;;;;;;;3.82;94.13;97451.89;105383;1310;27371;-84
2021/11/18 07:20:09;;;;;;;7.60;4.60;;;;;;;3.86;94.01;97444.23;105309;1309;28331;-84
2021/11/18 07:22:40;;;;;;;7.30;4.60;;;;;;;3.90;93.81;97439.09;105365;1311;28270;-84
2021/11/18 07:25:14;;;;;;;7.50;4.90;;;;;;;3.93;93.71;97432.81;105363;1311;29122;-84
2021/11/18 07:27:45;;;;;;;6.20;4.10;;;;;;;3.98;93.52;97435.20;105455;1313;27790;-84
2021/11/18 07:30:17;;;;;;;12.00;5.70;;;;;;;4.02;93.43;97437.33;105438;1313;28712;-84
2021/11/18 07:32:48;;;;;;;6.80;4.70;;;;;;;4.07;93.27;97443.02;105423;1309;26329;-84
2021/11/18 07:35:19;;;;;;;8.20;4.30;;;;;;;4.12;92.81;97447.71;105369;1313;29951;-82
2021/11/18 07:37:50;;;;;;;9.10;4.60;;;;;;;4.18;92.51;97445.42;105366;1311;26374;-83
2021/11/18 07:40:23;;;;;;;8.90;5.00;;;;;;;4.25;92.27;97444.16;105371;1309;29949;-83
2021/11/18 07:42:54;;;;;;;8.10;4.50;;;;;;;4.33;91.88;97440.88;105340;1310;26530;-83
2021/11/18 07:45:26;;;;;;;9.90;5.10;;;;;;;4.41;91.31;97440.39;105376;1313;25552;-83
2021/11/18 07:47:57;;;;;;;9.90;4.70;;;;;;;4.50;91.15;97443.96;105328;1316;26533;-84
2021/11/18 07:50:26;;;;;;;;;;;;;;;4.62;90.88;97441.48;105331;1315;29929;-84
2021/11/18 07:52:59;;;;;;;12.20;4.40;;;;;;;4.69;90.49;97439.40;105381;1313;26618;-83
2021/11/18 07:55:30;;;;;;;5.10;3.20;;;;;;;4.85;90.04;97441.10;105288;1309;27273;-83
2021/11/18 07:58:01;;;;;;;9.80;4.70;;;;;;;4.97;89.51;97446.05;105336;1315;26970;-84
2021/11/18 08:00:32;;;;;;;9.70;4.80;;;;;;;5.13;89.21;97445.70;105306;1316;26004;-83
2021/11/18 08:03:09;;;;;;;9.70;4.40;;;;;;;5.69;89.09;97438.80;105310;1310;28832;-84
2021/11/18 08:05:40;;;;;;;8.00;4.20;;;;;;;6.15;87.59;97429.96;105335;1315;27269;-84
2021/11/18 08:08:12;;;;;;;10.00;4.20;;;;;;;6.40;86.34;97429.88;105318;1309;27342;-83
2021/11/18 08:10:43;;;;;;;6.20;3.80;;;;;;;6.70;86.07;97430.04;105310;1310;27120;-83
2021/11/18 08:13:14;;;;;;;8.80;4.20;;;;;;;6.99;84.71;97429.73;105372;1314;26904;-83
2021/11/18 08:15:44;;;;;;;6.40;3.50;;;;;;;7.18;84.44;97432.02;105430;1310;24813;-83
2021/11/18 08:18:15;;;;;;;6.70;4.00;;;;;;;7.37;84.05;97439.20;105345;1315;24605;-83
2021/11/18 08:20:46;;;;;;;4.90;3.70;;;;;;;7.15;83.03;97436.42;105417;1309;25919;-84
2021/11/18 08:23:17;;;;;;;7.60;3.70;;;;;;;6.91;82.76;97440.61;105442;1309;28384;-83
2021/11/18 08:25:48;;;;;;;8.20;4.20;;;;;;;6.94;83.29;97440.73;105404;1315;24270;-83
2021/11/18 08:28:19;;;;;;;7.80;4.10;;;;;;;7.02;82.65;97440.09;105412;1311;25522;-81
2021/11/18 08:30:49;;;;;;;6.70;3.90;;;;;;;6.96;82.17;97442.71;105357;1313;38237;-82
2021/11/18 08:33:20;;;;;;;8.70;3.90;;;;;;;6.80;82.05;97449.58;105352;1313;26624;-82
2021/11/18 08:35:51;;;;;;;9.00;4.10;;;;;;;6.51;81.12;97438.85;105349;1313;26741;-82
2021/11/18 08:38:23;;;;;;;6.50;3.90;;;;;;;6.17;81.14;97441.02;105378;1313;26632;-83
2021/11/18 08:40:56;;;;;;;7.30;4.40;;;;;;;5.97;81.75;97451.19;105331;1314;28402;-83
2021/11/18 08:43:28;;;;;;;4.00;2.50;;;;;;;5.93;81.82;97449.90;105410;1312;25204;-83
2021/11/18 08:46:00;;;;;;;8.10;4.10;;;;;;;5.92;81.84;97451.83;105354;1315;29157;-84
2021/11/18 08:48:31;;;;;;;8.00;3.30;;;;;;;5.95;81.82;97450.73;105376;1312;26661;-83
2021/11/18 08:51:03;;;;;;;9.40;4.40;;;;;;;6.02;81.95;97455.45;105371;1314;25440;-84
2021/11/18 08:53:39;;;;;;;7.80;3.30;;;;;;;5.95;81.59;97459.93;105380;1313;28903;-84
2021/11/18 08:56:10;;;;;;;8.10;3.50;;;;;;;5.82;81.67;97454.50;105381;1313;27885;-83
2021/11/18 08:58:44;;;;;;;10.00;4.90;;;;;;;5.73;81.85;97458.41;105373;1314;25489;-83
2021/11/18 09:01:19;;;;;;;10.20;4.50;;;;;;;5.69;82.52;97455.39;105436;1312;26090;-83
2021/11/18 09:03:50;;;;;;;6.70;3.00;;;;;;;5.69;82.70;97458.55;105392;1310;25815;-83
2021/11/18 09:06:23;;;;;;;7.40;3.70;;;;;;;5.64;82.65;97461.26;105367;1315;24698;-83
2021/11/18 09:08:55;;;;;;;6.50;3.40;;;;;;;5.57;82.77;97466.50;105341;1313;25917;-84
2021/11/18 09:11:28;;;;;;;10.70;3.50;;;;;;;5.53;82.88;97468.30;105356;1313;27483;-83
2021/11/18 09:14:01;;;;;;;8.30;3.90;;;;;;;5.58;83.25;97466.04;105363;1313;29143;-83
2021/11/18 09:16:35;;;;;;;8.70;3.80;;;;;;;5.61;83.08;97465.13;105336;1316;28367;-83
2021/11/18 09:19:09;;;;;;;9.60;3.40;;;;;;;5.58;82.74;97469.36;105361;1310;26169;-84
2021/11/18 09:21:42;;;;;;;7.90;3.90;;;;;;;5.51;83.18;97470.04;105339;1313;29920;-84
2021/11/18 09:24:17;;;;;;;7.10;3.90;;;;;;;5.46;83.19;97468.59;105346;1315;30961;-83
2021/11/18 09:26:53;;;;;;;10.40;4.10;;;;;;;5.45;83.60;97473.34;105419;1313;25899;-83
2021/11/18 09:29:26;;;;;;;8.40;3.50;;;;;;;5.48;83.83;97477.09;105400;1313;26053;-83
2021/11/18 09:31:58;;;;;;;7.70;3.80;;;;;;;5.47;83.57;97478.70;105358;1313;28085;-83
2021/11/18 09:37:20;;;;;;;8.40;4.50;;;;;;;5.41;83.28;97478.27;105301;1302;36802;-86
2021/11/18 09:39:51;;;;;;;8.20;3.30;;;;;;;5.34;83.42;97485.39;104928;1317;32291;-85
2021/11/18 09:42:30;;;;;;;4.50;2.20;;;;;;;5.28;83.22;97478.91;104888;1313;33784;-87
2021/11/18 09:45:11;;;;;;;10.80;5.50;;;;;;;5.24;83.39;97485.58;104968;1313;27016;-84
2021/11/18 09:48:23;;;;;;;4.80;2.80;;;;;;;5.19;83.44;97491.33;104713;1316;28454;-85
2021/11/18 09:51:20;;;;;;;9.80;4.20;;;;;;;5.07;83.94;97500.00;104823;1316;29680;-85
2021/11/18 09:54:14;;;;;;;10.80;3.70;;;;;;;4.96;83.96;97507.41;104770;1320;27988;-86
2021/11/18 09:56:56;;;;;;;7.50;4.40;;;;;;;4.84;84.86;97513.63;104822;1319;30184;-85
2021/11/18 09:59:35;;;;;;;10.80;4.20;;;;;;;4.74;85.18;97506.31;104854;1319;29767;-85
2021/11/18 10:02:42;;;;;;;13.40;4.70;;;;;;;4.72;85.67;97506.05;104444;1316;28133;-86
2021/11/18 10:05:20;;;;;;;7.90;4.50;;;;;;;4.77;85.91;97503.66;104824;1313;27867;-84
2021/11/18 10:07:55;;;;;;;8.70;4.60;;;;;;;4.85;86.07;97501.84;104743;1320;28361;-85
2021/11/18 10:10:31;;;;;;;9.00;4.00;;;;;;;4.98;86.21;97500.52;104754;1317;27125;-84
2021/11/18 10:13:29;;;;;;;9.40;4.00;;;;;;;5.12;86.07;97498.30;104789;1316;29774;-86
2021/11/18 10:16:05;;;;;;;7.50;4.20;;;;;;;5.24;85.61;97494.02;104864;1313;26792;-84
2021/11/18 10:18:40;;;;;;;9.30;3.80;;;;;;;5.29;85.49;97498.13;104874;1318;28645;-86
2021/11/18 10:21:18;;;;;;;9.50;3.90;;;;;;;5.30;84.98;97496.24;104750;1319;52058;-85
2021/11/18 10:36:08;;;;;;;8.10;3.80;;;;;;;5.58;83.86;97490.23;101785;1352;557721;-82
2021/11/18 10:38:44;;;;;;;8.20;3.60;;;;;;;5.64;83.28;97486.47;104257;1327;187747;-82
2021/11/18 10:41:27;;;;;;;6.70;3.50;;;;;;;5.60;83.11;97480.50;104450;1325;27209;-82
2021/11/18 10:44:17;;;;;;;7.70;3.60;;;;;;;5.54;83.10;97476.10;104503;1325;30718;-84
2021/11/18 10:47:08;;;;;;;6.40;3.00;;;;;;;5.55;83.21;97476.12;104439;1323;29201;-84
2021/11/18 10:49:51;;;;;;;5.80;3.10;;;;;;;5.59;82.89;97466.91;104695;1316;44199;-84
2021/11/18 10:52:29;;;;;;;6.50;3.20;;;;;;;5.66;82.73;97462.94;104689;1316;28124;-82
2021/11/18 10:55:17;;;;;;;9.60;4.00;;;;;;;5.69;82.57;97460.48;104672;1322;29054;-85
2021/11/18 10:58:06;;;;;;;8.60;4.20;;;;;;;5.73;82.31;97463.70;104712;1316;24793;-84
2021/11/18 11:00:52;;;;;;;10.30;4.50;;;;;;;5.79;82.42;97475.69;104731;1316;30247;-81
2021/11/18 11:03:28;;;;;;;10.80;3.90;;;;;;;5.81;82.51;97479.00;104714;1323;28047;-84
2021/11/18 11:06:20;;;;;;;5.30;2.80;;;;;;;5.87;82.53;97470.20;104676;1322;28813;-85
2021/11/18 11:08:53;;;;;;;7.60;3.70;;;;;;;5.92;82.04;97468.20;104721;1316;30121;-84
2021/11/18 11:11:41;;;;;;;9.70;3.40;;;;;;;5.93;81.53;97463.64;104948;1320;32724;-84
2021/11/18 11:14:49;;;;;;;5.80;3.10;;;;;;;5.87;81.24;97474.81;104995;1316;31503;-84
2021/11/18 11:17:48;;;;;;;6.40;3.60;;;;;;;5.82;81.35;97472.96;104763;1319;26621;-84
2021/11/18 11:20:31;;;;;;;7.80;3.60;;;;;;;5.85;81.66;97474.56;104915;1319;28605;-84
2021/11/18 11:23:08;;;;;;;7.40;4.20;;;;;;;5.92;81.73;97472.59;105003;1317;27688;-84
2021/11/18 11:26:22;;;;;;;7.60;3.30;;;;;;;5.94;81.58;97468.14;104916;1316;27396;-84
2021/11/18 11:29:06;;;;;;;8.10;3.60;;;;;;;5.97;81.31;97471.02;104798;1319;29396;-84
2021/11/18 11:31:53;;;;;;;7.00;3.20;;;;;;;6.03;81.33;97464.74;105039;1319;27596;-85
2021/11/18 11:34:45;;;;;;;7.20;3.40;;;;;;;6.06;80.40;97455.13;104970;1319;29667;-82
2021/11/18 11:37:37;;;;;;;7.10;2.20;;;;;;;5.94;79.93;97449.20;104931;1319;27694;-83
2021/11/18 11:40:11;;;;;;;6.40;3.20;;;;;;;5.87;79.23;97439.15;104873;1313;27977;-82
2021/11/18 11:43:00;;;;;;;9.50;3.30;;;;;;;5.85;79.52;97439.77;104941;1319;25448;-83
2021/11/18 11:45:45;;;;;;;9.90;3.80;;;;;;;5.88;79.43;97434.80;105276;1316;28988;-84
2021/11/18 11:48:46;;;;;;;7.30;2.50;;;;;;;5.89;79.24;97426.45;105277;1315;28991;-84
2021/11/18 11:51:49;;;;;;;7.20;3.00;;;;;;;5.90;78.51;97421.55;105244;1315;28017;-83
2021/11/18 11:54:56;;;;;;;5.60;2.60;;;;;;;5.88;78.33;97420.42;105167;1315;27714;-83
2021/11/18 11:57:43;;;;;;;6.70;2.90;;;;;;;5.83;78.09;97422.30;105273;1314;30455;-83
2021/11/18 12:00:21;;;;;;;9.70;3.60;;;;;;;5.82;78.34;97428.28;105287;1315;26307;-83
2021/11/18 12:03:02;;;;;;;6.10;3.00;;;;;;;5.81;78.11;97426.43;105251;1316;31344;-83
2021/11/18 12:05:41;;;;;;;5.40;2.70;;;;;;;5.79;78.53;97428.13;105288;1315;27921;-83
2021/11/18 12:08:18;;;;;;;10.20;3.60;;;;;;;5.75;78.25;97428.70;105219;1313;29938;-83
2021/11/18 12:11:06;;;;;;;5.20;3.20;;;;;;;5.69;78.35;97436.88;105260;1316;31014;-83
2021/11/18 12:13:45;;;;;;;5.00;3.00;;;;;;;5.65;78.80;97431.79;105273;1315;26687;-84
2021/11/18 12:16:24;;;;;;;3.80;2.30;;;;;;;5.63;78.65;97424.97;105324;1316;24390;-85
2021/11/18 12:18:59;;;;;;;5.00;2.90;;;;;;;5.64;78.27;97433.51;105253;1316;25566;-84
2021/11/18 12:21:31;;;;;;;6.80;3.30;;;;;;;5.67;78.68;97433.41;105270;1316;28723;-83